sensor_id;sensor_type;location;lat;lon;timestamp;pressure;altitude;pressure_sealevel;temperature
67822;BMP180;54434;50.096;20.082;2023-12-20T00:02:04;98315.60;;;6.60
67822;BMP180;54434;50.096;20.082;2023-12-20T00:04:41;98312.40;;;6.60
67822;BMP180;54434;50.096;20.082;2023-12-20T00:07:18;98310.60;;;6.58
67822;BMP180;54434;50.096;20.082;2023-12-20T00:09:55;98305.40;;;6.50
67822;BMP180;54434;50.096;20.082;2023-12-20T00:12:31;98311.20;;;6.42
67822;BMP180;54434;50.096;20.082;2023-12-20T00:15:10;98310.20;;;6.40
67822;BMP180;54434;50.096;20.082;2023-12-20T00:17:46;98306.20;;;6.30
67822;BMP180;54434;50.096;20.082;2023-12-20T00:20:23;98305.40;;;6.30
67822;BMP180;54434;50.096;20.082;2023-12-20T00:23:01;98296.60;;;6.24
67822;BMP180;54434;50.096;20.082;2023-12-20T00:25:38;98297.40;;;6.20
67822;BMP180;54434;50.096;20.082;2023-12-20T00:28:14;98300.40;;;6.20
67822;BMP180;54434;50.096;20.082;2023-12-20T00:30:50;98294.80;;;6.10
67822;BMP180;54434;50.096;20.082;2023-12-20T00:33:27;98283.60;;;6.10
67822;BMP180;54434;50.096;20.082;2023-12-20T00:36:04;98274.00;;;6.10
67822;BMP180;54434;50.096;20.082;2023-12-20T00:38:41;98265.20;;;6.10
67822;BMP180;54434;50.096;20.082;2023-12-20T00:41:17;98256.60;;;6.10
67822;BMP180;54434;50.096;20.082;2023-12-20T00:43:54;98261.00;;;6.10
67822;BMP180;54434;50.096;20.082;2023-12-20T00:46:30;98260.00;;;6.18
67822;BMP180;54434;50.096;20.082;2023-12-20T00:49:06;98258.80;;;6.20
67822;BMP180;54434;50.096;20.082;2023-12-20T00:51:43;98252.40;;;6.20
67822;BMP180;54434;50.096;20.082;2023-12-20T00:54:19;98250.80;;;6.20
67822;BMP180;54434;50.096;20.082;2023-12-20T00:56:55;98253.00;;;6.20
67822;BMP180;54434;50.096;20.082;2023-12-20T00:59:32;98264.00;;;6.20
67822;BMP180;54434;50.096;20.082;2023-12-20T01:02:08;98262.80;;;6.20
67822;BMP180;54434;50.096;20.082;2023-12-20T01:04:45;98256.00;;;6.20
67822;BMP180;54434;50.096;20.082;2023-12-20T01:07:21;98263.60;;;6.20
67822;BMP180;54434;50.096;20.082;2023-12-20T01:09:59;98258.00;;;6.10
67822;BMP180;54434;50.096;20.082;2023-12-20T01:12:37;98251.00;;;6.10
67822;BMP180;54434;50.096;20.082;2023-12-20T01:15:14;98251.40;;;6.08
67822;BMP180;54434;50.096;20.082;2023-12-20T01:17:51;98261.00;;;6.00
67822;BMP180;54434;50.096;20.082;2023-12-20T01:20:27;98260.60;;;6.00
67822;BMP180;54434;50.096;20.082;2023-12-20T01:23:04;98257.20;;;6.00
67822;BMP180;54434;50.096;20.082;2023-12-20T01:25:40;98245.00;;;5.90
67822;BMP180;54434;50.096;20.082;2023-12-20T01:28:17;98233.20;;;5.90
67822;BMP180;54434;50.096;20.082;2023-12-20T01:30:53;98235.00;;;5.90
67822;BMP180;54434;50.096;20.082;2023-12-20T01:33:29;98228.60;;;5.80
67822;BMP180;54434;50.096;20.082;2023-12-20T01:36:07;98228.00;;;5.80
67822;BMP180;54434;50.096;20.082;2023-12-20T01:38:43;98225.20;;;5.76
67822;BMP180;54434;50.096;20.082;2023-12-20T01:41:19;98216.80;;;5.70
67822;BMP180;54434;50.096;20.082;2023-12-20T01:43:56;98209.00;;;5.60
67822;BMP180;54434;50.096;20.082;2023-12-20T01:46:33;98199.00;;;5.60
67822;BMP180;54434;50.096;20.082;2023-12-20T01:49:11;98185.60;;;5.58
67822;BMP180;54434;50.096;20.082;2023-12-20T01:51:48;98177.40;;;5.50
67822;BMP180;54434;50.096;20.082;2023-12-20T01:54:25;98177.80;;;5.50
67822;BMP180;54434;50.096;20.082;2023-12-20T01:57:02;98170.00;;;5.40
67822;BMP180;54434;50.096;20.082;2023-12-20T01:59:40;98168.80;;;5.40
67822;BMP180;54434;50.096;20.082;2023-12-20T02:02:18;98163.40;;;5.30
67822;BMP180;54434;50.096;20.082;2023-12-20T02:04:54;98165.00;;;5.30
67822;BMP180;54434;50.096;20.082;2023-12-20T02:07:32;98162.60;;;5.30
67822;BMP180;54434;50.096;20.082;2023-12-20T02:10:11;98160.20;;;5.30
67822;BMP180;54434;50.096;20.082;2023-12-20T02:12:48;98155.20;;;5.20
67822;BMP180;54434;50.096;20.082;2023-12-20T02:15:24;98158.80;;;5.20
67822;BMP180;54434;50.096;20.082;2023-12-20T02:18:01;98154.00;;;5.10
67822;BMP180;54434;50.096;20.082;2023-12-20T02:20:37;98150.20;;;5.10
67822;BMP180;54434;50.096;20.082;2023-12-20T02:23:14;98143.40;;;5.10
67822;BMP180;54434;50.096;20.082;2023-12-20T02:25:50;98141.80;;;5.00
67822;BMP180;54434;50.096;20.082;2023-12-20T02:28:27;98139.60;;;5.00
67822;BMP180;54434;50.096;20.082;2023-12-20T02:31:04;98140.40;;;4.90
67822;BMP180;54434;50.096;20.082;2023-12-20T02:33:41;98142.80;;;4.82
67822;BMP180;54434;50.096;20.082;2023-12-20T02:36:18;98138.00;;;4.80
67822;BMP180;54434;50.096;20.082;2023-12-20T02:38:54;98138.40;;;4.80
67822;BMP180;54434;50.096;20.082;2023-12-20T02:41:30;98137.20;;;4.70
67822;BMP180;54434;50.096;20.082;2023-12-20T02:44:08;98129.20;;;4.70
67822;BMP180;54434;50.096;20.082;2023-12-20T02:46:44;98133.40;;;4.70
67822;BMP180;54434;50.096;20.082;2023-12-20T02:49:20;98134.40;;;4.70
67822;BMP180;54434;50.096;20.082;2023-12-20T02:51:57;98126.00;;;4.68
67822;BMP180;54434;50.096;20.082;2023-12-20T02:54:33;98122.40;;;4.60
67822;BMP180;54434;50.096;20.082;2023-12-20T02:57:10;98119.00;;;4.60
67822;BMP180;54434;50.096;20.082;2023-12-20T02:59:46;98124.80;;;4.60
67822;BMP180;54434;50.096;20.082;2023-12-20T03:02:23;98126.00;;;4.60
67822;BMP180;54434;50.096;20.082;2023-12-20T03:04:59;98128.40;;;4.50
67822;BMP180;54434;50.096;20.082;2023-12-20T03:07:38;98121.60;;;4.50
67822;BMP180;54434;50.096;20.082;2023-12-20T03:10:14;98126.60;;;4.50
67822;BMP180;54434;50.096;20.082;2023-12-20T03:13:00;98127.80;;;4.50
67822;BMP180;54434;50.096;20.082;2023-12-20T03:15:37;98122.00;;;4.40
67822;BMP180;54434;50.096;20.082;2023-12-20T03:18:13;98120.00;;;4.40
67822;BMP180;54434;50.096;20.082;2023-12-20T03:20:49;98124.60;;;4.40
67822;BMP180;54434;50.096;20.082;2023-12-20T03:23:26;98119.80;;;4.40
67822;BMP180;54434;50.096;20.082;2023-12-20T03:26:03;98118.00;;;4.40
67822;BMP180;54434;50.096;20.082;2023-12-20T03:28:39;98112.20;;;4.40
67822;BMP180;54434;50.096;20.082;2023-12-20T03:31:15;98113.20;;;4.50
67822;BMP180;54434;50.096;20.082;2023-12-20T03:33:52;98106.20;;;4.60
67822;BMP180;54434;50.096;20.082;2023-12-20T03:36:29;98099.20;;;4.70
67822;BMP180;54434;50.096;20.082;2023-12-20T03:39:05;98107.40;;;4.80
67822;BMP180;54434;50.096;20.082;2023-12-20T03:41:42;98110.80;;;4.90
67822;BMP180;54434;50.096;20.082;2023-12-20T03:44:18;98119.60;;;5.00
67822;BMP180;54434;50.096;20.082;2023-12-20T03:46:55;98122.80;;;5.10
67822;BMP180;54434;50.096;20.082;2023-12-20T03:49:31;98126.60;;;5.30
67822;BMP180;54434;50.096;20.082;2023-12-20T03:52:09;98126.40;;;5.48
67822;BMP180;54434;50.096;20.082;2023-12-20T03:54:45;98124.60;;;5.60
67822;BMP180;54434;50.096;20.082;2023-12-20T03:57:21;98130.40;;;5.80
67822;BMP180;54434;50.096;20.082;2023-12-20T03:59:58;98130.80;;;5.90
67822;BMP180;54434;50.096;20.082;2023-12-20T04:02:34;98125.00;;;6.10
67822;BMP180;54434;50.096;20.082;2023-12-20T04:05:12;98124.80;;;6.20
67822;BMP180;54434;50.096;20.082;2023-12-20T04:07:49;98126.40;;;6.30
67822;BMP180;54434;50.096;20.082;2023-12-20T04:10:25;98119.20;;;6.40
67822;BMP180;54434;50.096;20.082;2023-12-20T04:13:02;98109.60;;;6.50
67822;BMP180;54434;50.096;20.082;2023-12-20T04:15:38;98107.80;;;6.60
67822;BMP180;54434;50.096;20.082;2023-12-20T04:18:15;98115.60;;;6.70
67822;BMP180;54434;50.096;20.082;2023-12-20T04:20:52;98112.80;;;6.70
67822;BMP180;54434;50.096;20.082;2023-12-20T04:23:28;98108.40;;;6.80
67822;BMP180;54434;50.096;20.082;2023-12-20T04:26:04;98107.80;;;6.80
67822;BMP180;54434;50.096;20.082;2023-12-20T04:28:41;98106.80;;;6.84
67822;BMP180;54434;50.096;20.082;2023-12-20T04:31:17;98111.60;;;6.82
67822;BMP180;54434;50.096;20.082;2023-12-20T04:33:54;98108.00;;;6.90
67822;BMP180;54434;50.096;20.082;2023-12-20T04:36:30;98113.40;;;6.88
67822;BMP180;54434;50.096;20.082;2023-12-20T04:39:07;98112.80;;;6.88
67822;BMP180;54434;50.096;20.082;2023-12-20T04:41:43;98112.20;;;6.90
67822;BMP180;54434;50.096;20.082;2023-12-20T04:44:20;98109.80;;;6.90
67822;BMP180;54434;50.096;20.082;2023-12-20T04:46:56;98116.80;;;6.90
67822;BMP180;54434;50.096;20.082;2023-12-20T04:49:32;98121.20;;;6.90
67822;BMP180;54434;50.096;20.082;2023-12-20T04:52:10;98123.40;;;6.96
67822;BMP180;54434;50.096;20.082;2023-12-20T04:54:46;98119.60;;;6.98
67822;BMP180;54434;50.096;20.082;2023-12-20T04:57:22;98122.20;;;7.00
67822;BMP180;54434;50.096;20.082;2023-12-20T04:59:59;98127.80;;;7.00
67822;BMP180;54434;50.096;20.082;2023-12-20T05:02:35;98131.40;;;7.00
67822;BMP180;54434;50.096;20.082;2023-12-20T05:05:13;98133.40;;;7.00
67822;BMP180;54434;50.096;20.082;2023-12-20T05:07:50;98136.40;;;6.98
67822;BMP180;54434;50.096;20.082;2023-12-20T05:10:27;98136.60;;;6.94
67822;BMP180;54434;50.096;20.082;2023-12-20T05:13:04;98129.40;;;6.90
67822;BMP180;54434;50.096;20.082;2023-12-20T05:15:40;98124.60;;;6.90
67822;BMP180;54434;50.096;20.082;2023-12-20T05:18:17;98130.80;;;6.90
67822;BMP180;54434;50.096;20.082;2023-12-20T05:20:54;98140.00;;;6.80
67822;BMP180;54434;50.096;20.082;2023-12-20T05:23:33;98134.20;;;6.80
67822;BMP180;54434;50.096;20.082;2023-12-20T05:26:09;98131.00;;;6.80
67822;BMP180;54434;50.096;20.082;2023-12-20T05:28:46;98136.60;;;6.70
67822;BMP180;54434;50.096;20.082;2023-12-20T05:31:22;98136.80;;;6.70
67822;BMP180;54434;50.096;20.082;2023-12-20T05:33:59;98136.40;;;6.60
67822;BMP180;54434;50.096;20.082;2023-12-20T05:36:35;98133.80;;;6.60
67822;BMP180;54434;50.096;20.082;2023-12-20T05:39:11;98129.80;;;6.50
67822;BMP180;54434;50.096;20.082;2023-12-20T05:41:48;98124.40;;;6.50
67822;BMP180;54434;50.096;20.082;2023-12-20T05:44:24;98124.40;;;6.40
67822;BMP180;54434;50.096;20.082;2023-12-20T05:47:00;98133.40;;;6.30
67822;BMP180;54434;50.096;20.082;2023-12-20T05:49:37;98130.20;;;6.30
67822;BMP180;54434;50.096;20.082;2023-12-20T05:52:13;98134.00;;;6.20
67822;BMP180;54434;50.096;20.082;2023-12-20T05:54:50;98134.00;;;6.20
67822;BMP180;54434;50.096;20.082;2023-12-20T05:57:28;98129.40;;;6.10
67822;BMP180;54434;50.096;20.082;2023-12-20T06:00:06;98127.80;;;6.00
67822;BMP180;54434;50.096;20.082;2023-12-20T06:02:46;98126.60;;;6.00
67822;BMP180;54434;50.096;20.082;2023-12-20T06:05:22;98121.00;;;5.90
67822;BMP180;54434;50.096;20.082;2023-12-20T06:07:59;98118.60;;;5.80
67822;BMP180;54434;50.096;20.082;2023-12-20T06:10:38;98127.20;;;5.80
67822;BMP180;54434;50.096;20.082;2023-12-20T06:13:15;98135.00;;;5.70
67822;BMP180;54434;50.096;20.082;2023-12-20T06:15:53;98145.00;;;5.66
67822;BMP180;54434;50.096;20.082;2023-12-20T06:18:30;98148.60;;;5.60
67822;BMP180;54434;50.096;20.082;2023-12-20T06:21:07;98150.40;;;5.50
67822;BMP180;54434;50.096;20.082;2023-12-20T06:23:47;98152.00;;;5.50
67822;BMP180;54434;50.096;20.082;2023-12-20T06:26:24;98153.20;;;5.40
67822;BMP180;54434;50.096;20.082;2023-12-20T06:29:00;98152.80;;;5.40
67822;BMP180;54434;50.096;20.082;2023-12-20T06:31:36;98150.40;;;5.30
67822;BMP180;54434;50.096;20.082;2023-12-20T06:34:13;98146.40;;;5.30
67822;BMP180;54434;50.096;20.082;2023-12-20T06:36:49;98148.20;;;5.20
67822;BMP180;54434;50.096;20.082;2023-12-20T06:39:26;98146.20;;;5.18
67822;BMP180;54434;50.096;20.082;2023-12-20T06:42:04;98142.80;;;5.10
67822;BMP180;54434;50.096;20.082;2023-12-20T06:44:40;98144.00;;;5.06
67822;BMP180;54434;50.096;20.082;2023-12-20T06:47:16;98150.40;;;5.00
67822;BMP180;54434;50.096;20.082;2023-12-20T06:49:53;98153.00;;;5.00
67822;BMP180;54434;50.096;20.082;2023-12-20T06:52:30;98144.60;;;4.90
67822;BMP180;54434;50.096;20.082;2023-12-20T06:55:07;98143.40;;;4.90
67822;BMP180;54434;50.096;20.082;2023-12-20T06:57:44;98140.20;;;4.82
67822;BMP180;54434;50.096;20.082;2023-12-20T07:00:22;98136.40;;;4.80
67822;BMP180;54434;50.096;20.082;2023-12-20T07:02:59;98138.00;;;4.80
67822;BMP180;54434;50.096;20.082;2023-12-20T07:05:35;98144.20;;;4.80
67822;BMP180;54434;50.096;20.082;2023-12-20T07:08:12;98148.00;;;4.80
67822;BMP180;54434;50.096;20.082;2023-12-20T07:10:50;98152.80;;;4.80
67822;BMP180;54434;50.096;20.082;2023-12-20T07:13:26;98150.40;;;4.78
67822;BMP180;54434;50.096;20.082;2023-12-20T07:16:03;98147.80;;;4.74
67822;BMP180;54434;50.096;20.082;2023-12-20T07:18:40;98148.40;;;4.80
67822;BMP180;54434;50.096;20.082;2023-12-20T07:21:16;98148.60;;;4.78
67822;BMP180;54434;50.096;20.082;2023-12-20T07:23:53;98147.60;;;4.80
67822;BMP180;54434;50.096;20.082;2023-12-20T07:26:29;98155.00;;;4.80
67822;BMP180;54434;50.096;20.082;2023-12-20T07:29:05;98153.00;;;4.78
67822;BMP180;54434;50.096;20.082;2023-12-20T07:31:41;98159.60;;;4.78
67822;BMP180;54434;50.096;20.082;2023-12-20T07:34:18;98160.80;;;4.74
67822;BMP180;54434;50.096;20.082;2023-12-20T07:36:54;98160.00;;;4.70
67822;BMP180;54434;50.096;20.082;2023-12-20T07:39:31;98155.40;;;4.70
67822;BMP180;54434;50.096;20.082;2023-12-20T07:42:08;98158.00;;;4.70
67822;BMP180;54434;50.096;20.082;2023-12-20T07:44:44;98162.40;;;4.70
67822;BMP180;54434;50.096;20.082;2023-12-20T07:47:21;98158.80;;;4.70
67822;BMP180;54434;50.096;20.082;2023-12-20T07:49:57;98161.40;;;4.70
67822;BMP180;54434;50.096;20.082;2023-12-20T07:52:34;98162.20;;;4.80
67822;BMP180;54434;50.096;20.082;2023-12-20T07:55:12;98157.20;;;4.80
67822;BMP180;54434;50.096;20.082;2023-12-20T07:57:48;98165.20;;;4.80
67822;BMP180;54434;50.096;20.082;2023-12-20T08:00:25;98162.40;;;4.80
67822;BMP180;54434;50.096;20.082;2023-12-20T08:03:02;98167.00;;;4.90
67822;BMP180;54434;50.096;20.082;2023-12-20T08:05:39;98164.60;;;4.90
67822;BMP180;54434;50.096;20.082;2023-12-20T08:08:16;98162.80;;;4.90
67822;BMP180;54434;50.096;20.082;2023-12-20T08:10:52;98168.60;;;4.90
67822;BMP180;54434;50.096;20.082;2023-12-20T08:13:29;98169.80;;;4.92
67822;BMP180;54434;50.096;20.082;2023-12-20T08:16:06;98172.40;;;4.92
67822;BMP180;54434;50.096;20.082;2023-12-20T08:18:42;98173.00;;;4.90
67822;BMP180;54434;50.096;20.082;2023-12-20T08:21:18;98172.60;;;4.90
67822;BMP180;54434;50.096;20.082;2023-12-20T08:23:57;98175.80;;;4.90
67822;BMP180;54434;50.096;20.082;2023-12-20T08:26:35;98172.60;;;4.90
67822;BMP180;54434;50.096;20.082;2023-12-20T08:29:14;98168.80;;;4.80
67822;BMP180;54434;50.096;20.082;2023-12-20T08:31:55;98159.00;;;4.80
67822;BMP180;54434;50.096;20.082;2023-12-20T08:34:31;98157.60;;;4.80
67822;BMP180;54434;50.096;20.082;2023-12-20T08:37:08;98156.00;;;4.80
67822;BMP180;54434;50.096;20.082;2023-12-20T08:39:45;98156.60;;;4.78
67822;BMP180;54434;50.096;20.082;2023-12-20T08:42:21;98153.00;;;4.70
67822;BMP180;54434;50.096;20.082;2023-12-20T08:44:59;98155.40;;;4.70
67822;BMP180;54434;50.096;20.082;2023-12-20T08:47:36;98159.80;;;4.70
67822;BMP180;54434;50.096;20.082;2023-12-20T08:50:14;98164.00;;;4.70
67822;BMP180;54434;50.096;20.082;2023-12-20T08:52:50;98166.00;;;4.70
67822;BMP180;54434;50.096;20.082;2023-12-20T08:55:26;98164.60;;;4.66
67822;BMP180;54434;50.096;20.082;2023-12-20T08:58:04;98159.80;;;4.60
67822;BMP180;54434;50.096;20.082;2023-12-20T09:00:42;98162.60;;;4.60
67822;BMP180;54434;50.096;20.082;2023-12-20T09:03:18;98166.00;;;4.60
67822;BMP180;54434;50.096;20.082;2023-12-20T09:05:55;98173.80;;;4.60
67822;BMP180;54434;50.096;20.082;2023-12-20T09:08:31;98168.80;;;4.60
67822;BMP180;54434;50.096;20.082;2023-12-20T09:11:08;98167.20;;;4.60
67822;BMP180;54434;50.096;20.082;2023-12-20T09:13:45;98168.00;;;4.60
67822;BMP180;54434;50.096;20.082;2023-12-20T09:16:21;98167.00;;;4.60
67822;BMP180;54434;50.096;20.082;2023-12-20T09:18:58;98169.40;;;4.60
67822;BMP180;54434;50.096;20.082;2023-12-20T09:21:34;98172.00;;;4.60
67822;BMP180;54434;50.096;20.082;2023-12-20T09:24:11;98166.40;;;4.60
67822;BMP180;54434;50.096;20.082;2023-12-20T09:26:47;98166.40;;;4.60
67822;BMP180;54434;50.096;20.082;2023-12-20T09:29:24;98168.60;;;4.58
67822;BMP180;54434;50.096;20.082;2023-12-20T09:32:00;98162.80;;;4.52
67822;BMP180;54434;50.096;20.082;2023-12-20T09:34:37;98164.60;;;4.50
67822;BMP180;54434;50.096;20.082;2023-12-20T09:37:13;98160.20;;;4.50
67822;BMP180;54434;50.096;20.082;2023-12-20T09:39:50;98156.80;;;4.50
67822;BMP180;54434;50.096;20.082;2023-12-20T09:42:38;98156.60;;;4.50
67822;BMP180;54434;50.096;20.082;2023-12-20T09:45:17;98156.80;;;4.50
67822;BMP180;54434;50.096;20.082;2023-12-20T09:47:57;98143.40;;;4.50
67822;BMP180;54434;50.096;20.082;2023-12-20T09:50:34;98150.00;;;4.50
67822;BMP180;54434;50.096;20.082;2023-12-20T09:53:16;98152.20;;;4.50
67822;BMP180;54434;50.096;20.082;2023-12-20T09:55:54;98144.20;;;4.50
67822;BMP180;54434;50.096;20.082;2023-12-20T09:58:31;98132.40;;;4.50
67822;BMP180;54434;50.096;20.082;2023-12-20T10:01:09;98128.80;;;4.50
67822;BMP180;54434;50.096;20.082;2023-12-20T10:03:46;98130.20;;;4.50
67822;BMP180;54434;50.096;20.082;2023-12-20T10:06:23;98129.20;;;4.50
67822;BMP180;54434;50.096;20.082;2023-12-20T10:09:00;98130.00;;;4.50
67822;BMP180;54434;50.096;20.082;2023-12-20T10:11:39;98123.60;;;4.50
67822;BMP180;54434;50.096;20.082;2023-12-20T10:14:17;98121.20;;;4.50
67822;BMP180;54434;50.096;20.082;2023-12-20T10:16:53;98118.20;;;4.50
67822;BMP180;54434;50.096;20.082;2023-12-20T10:19:30;98116.40;;;4.50
67822;BMP180;54434;50.096;20.082;2023-12-20T10:22:08;98113.60;;;4.50
67822;BMP180;54434;50.096;20.082;2023-12-20T10:24:46;98119.60;;;4.50
67822;BMP180;54434;50.096;20.082;2023-12-20T10:27:24;98118.00;;;4.48
67822;BMP180;54434;50.096;20.082;2023-12-20T10:30:03;98117.00;;;4.48
67822;BMP180;54434;50.096;20.082;2023-12-20T10:32:40;98114.60;;;4.42
67822;BMP180;54434;50.096;20.082;2023-12-20T10:35:17;98121.20;;;4.50
67822;BMP180;54434;50.096;20.082;2023-12-20T10:37:59;98116.80;;;4.48
67822;BMP180;54434;50.096;20.082;2023-12-20T10:40:39;98112.60;;;4.42
67822;BMP180;54434;50.096;20.082;2023-12-20T10:43:16;98110.60;;;4.40
67822;BMP180;54434;50.096;20.082;2023-12-20T10:45:53;98105.80;;;4.40
67822;BMP180;54434;50.096;20.082;2023-12-20T10:48:32;98103.20;;;4.40
67822;BMP180;54434;50.096;20.082;2023-12-20T10:51:12;98101.80;;;4.40
67822;BMP180;54434;50.096;20.082;2023-12-20T10:53:50;98101.20;;;4.40
67822;BMP180;54434;50.096;20.082;2023-12-20T10:56:33;98098.40;;;4.40
67822;BMP180;54434;50.096;20.082;2023-12-20T10:59:15;98099.80;;;4.40
67822;BMP180;54434;50.096;20.082;2023-12-20T11:01:55;98097.20;;;4.40
67822;BMP180;54434;50.096;20.082;2023-12-20T11:04:47;98100.60;;;4.38
67822;BMP180;54434;50.096;20.082;2023-12-20T11:07:43;98099.80;;;4.34
67822;BMP180;54434;50.096;20.082;2023-12-20T11:10:29;98097.00;;;4.30
67822;BMP180;54434;50.096;20.082;2023-12-20T11:13:15;98092.60;;;4.30
67822;BMP180;54434;50.096;20.082;2023-12-20T11:15:53;98094.00;;;4.30
67822;BMP180;54434;50.096;20.082;2023-12-20T11:18:34;98100.60;;;4.30
67822;BMP180;54434;50.096;20.082;2023-12-20T11:21:12;98102.20;;;4.36
67822;BMP180;54434;50.096;20.082;2023-12-20T11:23:49;98099.80;;;4.40
67822;BMP180;54434;50.096;20.082;2023-12-20T11:26:31;98094.60;;;4.40
67822;BMP180;54434;50.096;20.082;2023-12-20T11:29:35;98099.00;;;4.40
67822;BMP180;54434;50.096;20.082;2023-12-20T11:32:37;98093.00;;;4.40
67822;BMP180;54434;50.096;20.082;2023-12-20T11:35:23;98095.20;;;4.40
67822;BMP180;54434;50.096;20.082;2023-12-20T11:38:02;98094.40;;;4.40
67822;BMP180;54434;50.096;20.082;2023-12-20T11:40:40;98092.60;;;4.40
67822;BMP180;54434;50.096;20.082;2023-12-20T11:43:34;98085.60;;;4.40
67822;BMP180;54434;50.096;20.082;2023-12-20T11:46:12;98091.60;;;4.50
67822;BMP180;54434;50.096;20.082;2023-12-20T11:48:49;98082.60;;;4.50
67822;BMP180;54434;50.096;20.082;2023-12-20T11:51:27;98084.40;;;4.50
67822;BMP180;54434;50.096;20.082;2023-12-20T11:54:03;98080.40;;;4.60
67822;BMP180;54434;50.096;20.082;2023-12-20T11:56:40;98075.20;;;4.60
67822;BMP180;54434;50.096;20.082;2023-12-20T11:59:16;98081.20;;;4.60
67822;BMP180;54434;50.096;20.082;2023-12-20T12:01:58;98077.80;;;4.68
67822;BMP180;54434;50.096;20.082;2023-12-20T12:04:37;98077.00;;;4.70
67822;BMP180;54434;50.096;20.082;2023-12-20T12:07:14;98079.80;;;4.70
67822;BMP180;54434;50.096;20.082;2023-12-20T12:09:50;98081.80;;;4.70
67822;BMP180;54434;50.096;20.082;2023-12-20T12:12:27;98077.60;;;4.80
67822;BMP180;54434;50.096;20.082;2023-12-20T12:15:07;98078.60;;;4.80
67822;BMP180;54434;50.096;20.082;2023-12-20T12:17:44;98077.20;;;4.80
67822;BMP180;54434;50.096;20.082;2023-12-20T12:20:23;98079.60;;;4.80
67822;BMP180;54434;50.096;20.082;2023-12-20T12:23:05;98075.80;;;4.80
67822;BMP180;54434;50.096;20.082;2023-12-20T12:25:42;98069.40;;;4.80
67822;BMP180;54434;50.096;20.082;2023-12-20T12:28:19;98074.60;;;4.80
67822;BMP180;54434;50.096;20.082;2023-12-20T12:31:02;98074.00;;;4.80
67822;BMP180;54434;50.096;20.082;2023-12-20T12:33:39;98071.40;;;4.80
67822;BMP180;54434;50.096;20.082;2023-12-20T12:36:17;98077.00;;;4.80
67822;BMP180;54434;50.096;20.082;2023-12-20T12:38:54;98069.60;;;4.80
67822;BMP180;54434;50.096;20.082;2023-12-20T12:41:33;98074.80;;;4.80
67822;BMP180;54434;50.096;20.082;2023-12-20T12:44:10;98071.40;;;4.80
67822;BMP180;54434;50.096;20.082;2023-12-20T12:46:52;98074.00;;;4.80
67822;BMP180;54434;50.096;20.082;2023-12-20T12:49:31;98078.00;;;4.80
67822;BMP180;54434;50.096;20.082;2023-12-20T12:52:09;98074.20;;;4.80
67822;BMP180;54434;50.096;20.082;2023-12-20T12:54:45;98076.60;;;4.72
67822;BMP180;54434;50.096;20.082;2023-12-20T12:57:22;98077.20;;;4.70
67822;BMP180;54434;50.096;20.082;2023-12-20T12:59:59;98079.20;;;4.70
67822;BMP180;54434;50.096;20.082;2023-12-20T13:02:36;98087.20;;;4.70
67822;BMP180;54434;50.096;20.082;2023-12-20T13:05:13;98081.20;;;4.70
67822;BMP180;54434;50.096;20.082;2023-12-20T13:07:50;98087.00;;;4.66
67822;BMP180;54434;50.096;20.082;2023-12-20T13:10:29;98088.40;;;4.66
67822;BMP180;54434;50.096;20.082;2023-12-20T13:13:06;98077.20;;;4.60
67822;BMP180;54434;50.096;20.082;2023-12-20T13:15:42;98070.80;;;4.70
67822;BMP180;54434;50.096;20.082;2023-12-20T13:18:26;98083.00;;;4.70
67822;BMP180;54434;50.096;20.082;2023-12-20T13:21:02;98092.20;;;4.70
67822;BMP180;54434;50.096;20.082;2023-12-20T13:23:39;98096.60;;;4.70
67822;BMP180;54434;50.096;20.082;2023-12-20T13:26:15;98088.20;;;4.70
67822;BMP180;54434;50.096;20.082;2023-12-20T13:28:53;98087.80;;;4.70
67822;BMP180;54434;50.096;20.082;2023-12-20T13:31:29;98087.60;;;4.62
67822;BMP180;54434;50.096;20.082;2023-12-20T13:34:06;98089.40;;;4.60
67822;BMP180;54434;50.096;20.082;2023-12-20T13:36:44;98096.20;;;4.60
67822;BMP180;54434;50.096;20.082;2023-12-20T13:39:23;98099.40;;;4.60
67822;BMP180;54434;50.096;20.082;2023-12-20T13:41:59;98098.60;;;4.60
67822;BMP180;54434;50.096;20.082;2023-12-20T13:44:36;98093.60;;;4.62
67822;BMP180;54434;50.096;20.082;2023-12-20T13:47:12;98090.40;;;4.70
67822;BMP180;54434;50.096;20.082;2023-12-20T13:49:49;98089.80;;;4.70
67822;BMP180;54434;50.096;20.082;2023-12-20T13:52:26;98093.20;;;4.70
67822;BMP180;54434;50.096;20.082;2023-12-20T13:55:03;98102.80;;;4.70
67822;BMP180;54434;50.096;20.082;2023-12-20T13:57:42;98098.20;;;4.70
67822;BMP180;54434;50.096;20.082;2023-12-20T14:00:29;98093.80;;;4.70
67822;BMP180;54434;50.096;20.082;2023-12-20T14:03:06;98102.20;;;4.70
67822;BMP180;54434;50.096;20.082;2023-12-20T14:05:44;98099.20;;;4.70
67822;BMP180;54434;50.096;20.082;2023-12-20T14:08:20;98102.20;;;4.70
67822;BMP180;54434;50.096;20.082;2023-12-20T14:10:57;98102.20;;;4.70
67822;BMP180;54434;50.096;20.082;2023-12-20T14:13:33;98095.80;;;4.70
67822;BMP180;54434;50.096;20.082;2023-12-20T14:16:10;98102.80;;;4.70
67822;BMP180;54434;50.096;20.082;2023-12-20T14:18:47;98104.20;;;4.70
67822;BMP180;54434;50.096;20.082;2023-12-20T14:21:24;98103.20;;;4.76
67822;BMP180;54434;50.096;20.082;2023-12-20T14:24:00;98101.60;;;4.78
67822;BMP180;54434;50.096;20.082;2023-12-20T14:26:36;98100.40;;;4.74
67822;BMP180;54434;50.096;20.082;2023-12-20T14:29:13;98097.40;;;4.70
67822;BMP180;54434;50.096;20.082;2023-12-20T14:31:49;98095.80;;;4.70
67822;BMP180;54434;50.096;20.082;2023-12-20T14:34:25;98094.60;;;4.70
67822;BMP180;54434;50.096;20.082;2023-12-20T14:37:02;98101.00;;;4.70
67822;BMP180;54434;50.096;20.082;2023-12-20T14:39:38;98099.60;;;4.60
67822;BMP180;54434;50.096;20.082;2023-12-20T14:42:16;98104.00;;;4.50
67822;BMP180;54434;50.096;20.082;2023-12-20T14:44:53;98103.60;;;4.44
67822;BMP180;54434;50.096;20.082;2023-12-20T14:47:29;98095.80;;;4.40
67822;BMP180;54434;50.096;20.082;2023-12-20T14:50:08;98097.80;;;4.40
67822;BMP180;54434;50.096;20.082;2023-12-20T14:52:45;98101.60;;;4.40
67822;BMP180;54434;50.096;20.082;2023-12-20T14:55:22;98111.20;;;4.40
67822;BMP180;54434;50.096;20.082;2023-12-20T14:57:58;98100.40;;;4.40
67822;BMP180;54434;50.096;20.082;2023-12-20T15:00:35;98102.80;;;4.40
67822;BMP180;54434;50.096;20.082;2023-12-20T15:03:12;98100.60;;;4.40
67822;BMP180;54434;50.096;20.082;2023-12-20T15:05:51;98104.60;;;4.48
67822;BMP180;54434;50.096;20.082;2023-12-20T15:08:28;98099.00;;;4.44